Mills River, NC

7:59 AM EDT on July 03, 2015 (GMT -0400)
Niki's High Vista Weather | | Change Station
CLOSE
Current Station
Personal Weather Station
Location: Mills River, NC
Elevation: 2825 ft
Nearby Weather Stations

Elev 2825 ft 35.44 °N, 82.59 °W | Updated 4 minutes ago

Overcast
Overcast
64.5 °F
Feels Like 64.5 °F
N
0.0
Wind Variable Wind from North
Gusts 5.0 mph

Today
High -- | Low -- °F
--% Chance of Precip.
Yesterday
High -- | Low -- °F
Precip. -- in
6:19 AM 8:49 PM
Full, 97% visible
Pressure 29.91 in
Visibility 7.0 miles
Clouds Scattered Clouds 400 ft
Mostly Cloudy 8500 ft
Overcast 11000 ft
Dew Point 64 °F
Humidity 98%
Rainfall 0.05 in
Snow Depth Not available.
UV 0 out of 12
Pollen .50 out of 12
Air Quality Not available.
Flu Activity Not available.
METAR KAVL 031154Z 00000KT 7SM SCT004 BKN085 OVC110 19/18 A2998 RMK AO2 RAE32 SLP128 P0002 60006 70011 T01890178 10189 20178 50005

More Conditions Fewer Conditions

Pressure 29.91 in
Visibility 7.0 miles
Clouds Scattered Clouds 400 ft
Mostly Cloudy 8500 ft
Overcast 11000 ft
Dew Point 64 °F
Humidity 98%
Rainfall 0.05 in
Snow Depth Not available.
UV 0 out of 12
Pollen .50 out of 12
Air Quality Not available.
Flu Activity Not available.
METAR KAVL 031154Z 00000KT 7SM SCT004 BKN085 OVC110 19/18 A2998 RMK AO2 RAE32 SLP128 P0002 60006 70011 T01890178 10189 20178 50005

More Conditions Fewer Conditions

10-Day Weather Forecast

×

Almanac

Astronomy

Jul. 03, 2015 Rise Set
Actual Time
Civil Twilight
Nautical Twilight
Astronomical Twilight
Moon
Length of Visible Light
Length of Day
Tomorrow will be .
, % of the Moon is Illuminated

Today's Extremes

State Highs State Lows

Community

WunderPhotos

Upload Photos

1,834,656 photos uploaded!

WunderBlogs® & News

Nearby

Air Quality

  Air Quality AQ Index Pollutant
Not available.

Snow Depth

Station Depth Elevation

Earthquake Activity

City Distance Mag. Time & Date
Minimum magnitude displayed is 2.5.

Coastal Water Temperatures

Place Temperature

Stations

Nearby Weather Stations

Station Location Temp. Windchill Dew Point Humidity Wind Precip. Elev Updated Type